sensor_id;sensor_type;location;lat;lon;timestamp;P1;durP1;ratioP1;P2;durP2;ratioP2
53151;SDS011;39234;53.158;6.322;2023-06-14T00:01:48;7.75;;;1.90;;
53151;SDS011;39234;53.158;6.322;2023-06-14T00:04:14;6.32;;;1.73;;
53151;SDS011;39234;53.158;6.322;2023-06-14T00:06:44;4.20;;;1.50;;
53151;SDS011;39234;53.158;6.322;2023-06-14T00:09:11;5.00;;;1.67;;
53151;SDS011;39234;53.158;6.322;2023-06-14T00:11:42;6.18;;;1.80;;
53151;SDS011;39234;53.158;6.322;2023-06-14T00:14:08;8.32;;;1.80;;
53151;SDS011;39234;53.158;6.322;2023-06-14T00:16:34;5.75;;;1.90;;
53151;SDS011;39234;53.158;6.322;2023-06-14T00:19:00;5.45;;;2.00;;
53151;SDS011;39234;53.158;6.322;2023-06-14T00:21:29;4.80;;;2.08;;
53151;SDS011;39234;53.158;6.322;2023-06-14T00:23:55;4.22;;;1.80;;
53151;SDS011;39234;53.158;6.322;2023-06-14T00:26:22;4.40;;;2.10;;
53151;SDS011;39234;53.158;6.322;2023-06-14T00:28:48;8.27;;;2.42;;
53151;SDS011;39234;53.158;6.322;2023-06-14T00:31:14;5.72;;;1.85;;
53151;SDS011;39234;53.158;6.322;2023-06-14T00:33:39;5.22;;;1.90;;
53151;SDS011;39234;53.158;6.322;2023-06-14T00:36:05;5.35;;;1.83;;
53151;SDS011;39234;53.158;6.322;2023-06-14T00:38:31;7.85;;;1.80;;
53151;SDS011;39234;53.158;6.322;2023-06-14T00:40:56;4.57;;;1.90;;
53151;SDS011;39234;53.158;6.322;2023-06-14T00:43:22;5.15;;;2.47;;
53151;SDS011;39234;53.158;6.322;2023-06-14T00:45:48;6.95;;;1.90;;
53151;SDS011;39234;53.158;6.322;2023-06-14T00:48:14;6.25;;;1.90;;
53151;SDS011;39234;53.158;6.322;2023-06-14T00:50:40;5.95;;;2.13;;
53151;SDS011;39234;53.158;6.322;2023-06-14T00:53:06;4.82;;;1.80;;
53151;SDS011;39234;53.158;6.322;2023-06-14T00:55:32;5.97;;;2.10;;
53151;SDS011;39234;53.158;6.322;2023-06-14T00:57:58;7.90;;;1.95;;
53151;SDS011;39234;53.158;6.322;2023-06-14T01:00:25;4.07;;;2.00;;
53151;SDS011;39234;53.158;6.322;2023-06-14T01:02:51;6.70;;;1.92;;
53151;SDS011;39234;53.158;6.322;2023-06-14T01:05:16;11.57;;;2.10;;
53151;SDS011;39234;53.158;6.322;2023-06-14T01:07:51;4.28;;;1.77;;
53151;SDS011;39234;53.158;6.322;2023-06-14T01:16:02;5.07;;;1.95;;
53151;SDS011;39234;53.158;6.322;2023-06-14T01:18:28;7.55;;;1.63;;
53151;SDS011;39234;53.158;6.322;2023-06-14T01:20:54;4.72;;;1.67;;
53151;SDS011;39234;53.158;6.322;2023-06-14T01:23:21;5.05;;;1.65;;
53151;SDS011;39234;53.158;6.322;2023-06-14T01:25:48;6.35;;;1.85;;
53151;SDS011;39234;53.158;6.322;2023-06-14T01:28:18;4.03;;;1.92;;
53151;SDS011;39234;53.158;6.322;2023-06-14T01:30:47;3.85;;;1.80;;
53151;SDS011;39234;53.158;6.322;2023-06-14T01:33:26;5.28;;;1.63;;
53151;SDS011;39234;53.158;6.322;2023-06-14T01:35:53;9.77;;;1.67;;
53151;SDS011;39234;53.158;6.322;2023-06-14T01:38:24;6.22;;;1.75;;
53151;SDS011;39234;53.158;6.322;2023-06-14T01:40:51;6.10;;;1.83;;
53151;SDS011;39234;53.158;6.322;2023-06-14T01:43:20;4.13;;;1.67;;
53151;SDS011;39234;53.158;6.322;2023-06-14T01:45:47;9.20;;;2.35;;
53151;SDS011;39234;53.158;6.322;2023-06-14T01:48:16;5.93;;;1.70;;
53151;SDS011;39234;53.158;6.322;2023-06-14T01:50:43;5.78;;;2.00;;
53151;SDS011;39234;53.158;6.322;2023-06-14T01:53:09;7.40;;;1.58;;
53151;SDS011;39234;53.158;6.322;2023-06-14T01:55:35;5.03;;;1.85;;
53151;SDS011;39234;53.158;6.322;2023-06-14T01:58:08;4.63;;;1.70;;
53151;SDS011;39234;53.158;6.322;2023-06-14T02:00:35;4.20;;;1.60;;
53151;SDS011;39234;53.158;6.322;2023-06-14T02:03:01;5.90;;;1.90;;
53151;SDS011;39234;53.158;6.322;2023-06-14T02:05:29;7.82;;;1.70;;
53151;SDS011;39234;53.158;6.322;2023-06-14T02:07:55;5.13;;;1.80;;
53151;SDS011;39234;53.158;6.322;2023-06-14T02:10:21;5.75;;;1.75;;
53151;SDS011;39234;53.158;6.322;2023-06-14T02:12:47;6.80;;;1.73;;
53151;SDS011;39234;53.158;6.322;2023-06-14T02:15:13;5.13;;;1.52;;
53151;SDS011;39234;53.158;6.322;2023-06-14T02:17:42;5.88;;;2.05;;
53151;SDS011;39234;53.158;6.322;2023-06-14T02:20:08;6.55;;;1.90;;
53151;SDS011;39234;53.158;6.322;2023-06-14T02:22:34;3.95;;;1.70;;
53151;SDS011;39234;53.158;6.322;2023-06-14T02:25:00;6.72;;;2.15;;
53151;SDS011;39234;53.158;6.322;2023-06-14T02:27:26;5.68;;;1.83;;
53151;SDS011;39234;53.158;6.322;2023-06-14T02:29:51;7.25;;;1.95;;
53151;SDS011;39234;53.158;6.322;2023-06-14T02:32:17;5.38;;;2.10;;
53151;SDS011;39234;53.158;6.322;2023-06-14T02:34:43;9.85;;;2.20;;
53151;SDS011;39234;53.158;6.322;2023-06-14T02:37:09;6.13;;;2.45;;
53151;SDS011;39234;53.158;6.322;2023-06-14T02:39:36;6.78;;;1.90;;
53151;SDS011;39234;53.158;6.322;2023-06-14T02:42:02;5.97;;;2.00;;
53151;SDS011;39234;53.158;6.322;2023-06-14T02:44:28;7.07;;;1.85;;
53151;SDS011;39234;53.158;6.322;2023-06-14T02:46:54;5.22;;;2.08;;
53151;SDS011;39234;53.158;6.322;2023-06-14T02:49:21;8.32;;;1.95;;
53151;SDS011;39234;53.158;6.322;2023-06-14T02:51:47;7.10;;;2.28;;
53151;SDS011;39234;53.158;6.322;2023-06-14T02:54:13;5.40;;;2.30;;
53151;SDS011;39234;53.158;6.322;2023-06-14T02:56:39;5.38;;;2.10;;
53151;SDS011;39234;53.158;6.322;2023-06-14T02:59:05;7.38;;;2.05;;
53151;SDS011;39234;53.158;6.322;2023-06-14T03:01:32;7.63;;;2.10;;
53151;SDS011;39234;53.158;6.322;2023-06-14T03:04:06;8.45;;;2.03;;
53151;SDS011;39234;53.158;6.322;2023-06-14T03:06:34;11.02;;;2.08;;
53151;SDS011;39234;53.158;6.322;2023-06-14T03:09:01;3.75;;;2.03;;
53151;SDS011;39234;53.158;6.322;2023-06-14T03:11:31;5.68;;;2.05;;
53151;SDS011;39234;53.158;6.322;2023-06-14T03:13:57;7.65;;;2.42;;
53151;SDS011;39234;53.158;6.322;2023-06-14T03:16:24;6.15;;;2.20;;
53151;SDS011;39234;53.158;6.322;2023-06-14T03:18:50;5.35;;;2.35;;
53151;SDS011;39234;53.158;6.322;2023-06-14T03:21:17;5.72;;;2.20;;
53151;SDS011;39234;53.158;6.322;2023-06-14T03:23:44;8.27;;;2.50;;
53151;SDS011;39234;53.158;6.322;2023-06-14T03:26:10;4.47;;;2.28;;
53151;SDS011;39234;53.158;6.322;2023-06-14T03:28:39;5.68;;;2.33;;
53151;SDS011;39234;53.158;6.322;2023-06-14T03:31:05;4.68;;;1.95;;
53151;SDS011;39234;53.158;6.322;2023-06-14T03:33:31;5.45;;;2.15;;
53151;SDS011;39234;53.158;6.322;2023-06-14T03:35:57;4.60;;;2.15;;
53151;SDS011;39234;53.158;6.322;2023-06-14T03:38:23;5.25;;;2.13;;
53151;SDS011;39234;53.158;6.322;2023-06-14T03:40:48;8.38;;;2.70;;
53151;SDS011;39234;53.158;6.322;2023-06-14T03:43:14;5.70;;;2.50;;
53151;SDS011;39234;53.158;6.322;2023-06-14T03:45:40;6.30;;;2.22;;
53151;SDS011;39234;53.158;6.322;2023-06-14T03:48:05;5.57;;;2.15;;
53151;SDS011;39234;53.158;6.322;2023-06-14T03:50:33;7.90;;;2.28;;
53151;SDS011;39234;53.158;6.322;2023-06-14T03:52:59;8.85;;;2.50;;
53151;SDS011;39234;53.158;6.322;2023-06-14T03:55:26;6.13;;;2.45;;
53151;SDS011;39234;53.158;6.322;2023-06-14T03:57:52;5.93;;;2.00;;
53151;SDS011;39234;53.158;6.322;2023-06-14T04:00:18;5.25;;;2.28;;
53151;SDS011;39234;53.158;6.322;2023-06-14T04:02:44;5.05;;;2.13;;
53151;SDS011;39234;53.158;6.322;2023-06-14T04:05:10;5.07;;;2.28;;
53151;SDS011;39234;53.158;6.322;2023-06-14T04:07:36;5.18;;;2.40;;
53151;SDS011;39234;53.158;6.322;2023-06-14T04:10:10;4.63;;;2.33;;
53151;SDS011;39234;53.158;6.322;2023-06-14T04:12:37;5.55;;;2.00;;
53151;SDS011;39234;53.158;6.322;2023-06-14T04:15:02;8.35;;;2.30;;
53151;SDS011;39234;53.158;6.322;2023-06-14T04:17:30;5.78;;;2.42;;
53151;SDS011;39234;53.158;6.322;2023-06-14T04:19:58;7.18;;;2.35;;
53151;SDS011;39234;53.158;6.322;2023-06-14T04:22:25;4.85;;;2.30;;
53151;SDS011;39234;53.158;6.322;2023-06-14T04:24:54;5.43;;;2.42;;
53151;SDS011;39234;53.158;6.322;2023-06-14T04:27:23;7.75;;;2.15;;
53151;SDS011;39234;53.158;6.322;2023-06-14T04:29:53;5.18;;;2.40;;
53151;SDS011;39234;53.158;6.322;2023-06-14T04:32:27;4.80;;;2.10;;
53151;SDS011;39234;53.158;6.322;2023-06-14T04:34:58;4.35;;;2.17;;
53151;SDS011;39234;53.158;6.322;2023-06-14T04:37:27;7.13;;;2.47;;
53151;SDS011;39234;53.158;6.322;2023-06-14T04:39:56;7.95;;;2.40;;
53151;SDS011;39234;53.158;6.322;2023-06-14T04:42:23;6.38;;;2.55;;
53151;SDS011;39234;53.158;6.322;2023-06-14T04:44:55;5.85;;;2.75;;
53151;SDS011;39234;53.158;6.322;2023-06-14T04:47:21;6.38;;;2.50;;
53151;SDS011;39234;53.158;6.322;2023-06-14T04:49:46;10.88;;;2.17;;
53151;SDS011;39234;53.158;6.322;2023-06-14T04:52:12;5.30;;;2.22;;
53151;SDS011;39234;53.158;6.322;2023-06-14T04:54:39;6.47;;;2.22;;
53151;SDS011;39234;53.158;6.322;2023-06-14T04:57:08;8.40;;;2.75;;
53151;SDS011;39234;53.158;6.322;2023-06-14T04:59:39;8.13;;;2.43;;
53151;SDS011;39234;53.158;6.322;2023-06-14T05:02:05;4.63;;;2.40;;
53151;SDS011;39234;53.158;6.322;2023-06-14T05:04:32;6.65;;;2.60;;
53151;SDS011;39234;53.158;6.322;2023-06-14T05:06:58;7.47;;;2.67;;
53151;SDS011;39234;53.158;6.322;2023-06-14T05:09:24;6.30;;;2.65;;
53151;SDS011;39234;53.158;6.322;2023-06-14T05:11:49;6.97;;;2.88;;
53151;SDS011;39234;53.158;6.322;2023-06-14T05:14:15;5.78;;;2.40;;
53151;SDS011;39234;53.158;6.322;2023-06-14T05:16:42;7.55;;;2.55;;
53151;SDS011;39234;53.158;6.322;2023-06-14T05:19:08;10.88;;;3.88;;
53151;SDS011;39234;53.158;6.322;2023-06-14T05:21:35;6.63;;;2.35;;
53151;SDS011;39234;53.158;6.322;2023-06-14T05:24:02;8.38;;;2.78;;
53151;SDS011;39234;53.158;6.322;2023-06-14T05:26:28;6.47;;;2.33;;
53151;SDS011;39234;53.158;6.322;2023-06-14T05:28:57;8.45;;;3.53;;
53151;SDS011;39234;53.158;6.322;2023-06-14T05:31:25;6.75;;;2.75;;
53151;SDS011;39234;53.158;6.322;2023-06-14T05:33:52;8.77;;;2.92;;
53151;SDS011;39234;53.158;6.322;2023-06-14T05:36:18;6.95;;;2.50;;
53151;SDS011;39234;53.158;6.322;2023-06-14T05:38:47;7.45;;;2.15;;
53151;SDS011;39234;53.158;6.322;2023-06-14T05:41:13;12.65;;;4.35;;
53151;SDS011;39234;53.158;6.322;2023-06-14T05:43:38;7.88;;;2.88;;
53151;SDS011;39234;53.158;6.322;2023-06-14T05:46:04;10.23;;;2.65;;
53151;SDS011;39234;53.158;6.322;2023-06-14T05:48:30;7.20;;;2.50;;
53151;SDS011;39234;53.158;6.322;2023-06-14T05:50:56;9.95;;;2.80;;
53151;SDS011;39234;53.158;6.322;2023-06-14T05:53:22;7.25;;;2.95;;
53151;SDS011;39234;53.158;6.322;2023-06-14T05:55:49;5.25;;;2.65;;
53151;SDS011;39234;53.158;6.322;2023-06-14T05:58:16;4.70;;;2.50;;
53151;SDS011;39234;53.158;6.322;2023-06-14T06:00:42;5.80;;;2.50;;
53151;SDS011;39234;53.158;6.322;2023-06-14T06:03:08;7.47;;;2.90;;
53151;SDS011;39234;53.158;6.322;2023-06-14T06:05:34;8.88;;;2.60;;
53151;SDS011;39234;53.158;6.322;2023-06-14T06:08:00;7.18;;;2.38;;
53151;SDS011;39234;53.158;6.322;2023-06-14T06:10:25;5.63;;;2.58;;
53151;SDS011;39234;53.158;6.322;2023-06-14T06:12:51;5.32;;;2.30;;
53151;SDS011;39234;53.158;6.322;2023-06-14T06:15:19;8.90;;;2.60;;
53151;SDS011;39234;53.158;6.322;2023-06-14T06:17:45;10.80;;;2.55;;
53151;SDS011;39234;53.158;6.322;2023-06-14T06:20:11;6.95;;;2.65;;
53151;SDS011;39234;53.158;6.322;2023-06-14T06:22:37;6.70;;;2.50;;
53151;SDS011;39234;53.158;6.322;2023-06-14T06:25:03;7.72;;;2.45;;
53151;SDS011;39234;53.158;6.322;2023-06-14T06:27:29;9.35;;;2.55;;
53151;SDS011;39234;53.158;6.322;2023-06-14T06:29:55;6.95;;;2.53;;
53151;SDS011;39234;53.158;6.322;2023-06-14T06:32:21;4.60;;;2.05;;
53151;SDS011;39234;53.158;6.322;2023-06-14T06:34:47;6.25;;;2.30;;
53151;SDS011;39234;53.158;6.322;2023-06-14T06:37:13;5.05;;;1.95;;
53151;SDS011;39234;53.158;6.322;2023-06-14T06:39:39;9.35;;;2.33;;
53151;SDS011;39234;53.158;6.322;2023-06-14T06:42:05;5.88;;;2.10;;
53151;SDS011;39234;53.158;6.322;2023-06-14T06:44:31;4.85;;;2.33;;
53151;SDS011;39234;53.158;6.322;2023-06-14T06:46:57;7.90;;;2.42;;
53151;SDS011;39234;53.158;6.322;2023-06-14T06:49:23;5.32;;;2.30;;
53151;SDS011;39234;53.158;6.322;2023-06-14T06:51:59;8.27;;;1.98;;
53151;SDS011;39234;53.158;6.322;2023-06-14T06:54:27;9.80;;;2.38;;
53151;SDS011;39234;53.158;6.322;2023-06-14T06:56:52;7.03;;;1.92;;
53151;SDS011;39234;53.158;6.322;2023-06-14T06:59:18;5.65;;;2.08;;
53151;SDS011;39234;53.158;6.322;2023-06-14T07:01:44;5.65;;;2.30;;
53151;SDS011;39234;53.158;6.322;2023-06-14T07:04:10;5.00;;;1.80;;
53151;SDS011;39234;53.158;6.322;2023-06-14T07:06:35;6.13;;;2.08;;
53151;SDS011;39234;53.158;6.322;2023-06-14T07:09:02;6.22;;;2.25;;
53151;SDS011;39234;53.158;6.322;2023-06-14T07:11:30;5.75;;;2.35;;
53151;SDS011;39234;53.158;6.322;2023-06-14T07:13:56;3.72;;;1.80;;
53151;SDS011;39234;53.158;6.322;2023-06-14T07:16:21;8.40;;;2.05;;
53151;SDS011;39234;53.158;6.322;2023-06-14T07:18:48;7.18;;;2.20;;
53151;SDS011;39234;53.158;6.322;2023-06-14T07:21:14;5.75;;;2.00;;
53151;SDS011;39234;53.158;6.322;2023-06-14T07:23:39;9.02;;;2.40;;
53151;SDS011;39234;53.158;6.322;2023-06-14T07:26:06;6.53;;;2.33;;
53151;SDS011;39234;53.158;6.322;2023-06-14T07:28:31;6.82;;;2.15;;
53151;SDS011;39234;53.158;6.322;2023-06-14T07:30:57;4.68;;;2.03;;
53151;SDS011;39234;53.158;6.322;2023-06-14T07:33:23;6.50;;;2.10;;
53151;SDS011;39234;53.158;6.322;2023-06-14T07:35:48;8.13;;;1.65;;
53151;SDS011;39234;53.158;6.322;2023-06-14T07:38:15;4.55;;;1.98;;
53151;SDS011;39234;53.158;6.322;2023-06-14T07:40:40;8.00;;;1.75;;
53151;SDS011;39234;53.158;6.322;2023-06-14T07:43:06;3.58;;;1.52;;
53151;SDS011;39234;53.158;6.322;2023-06-14T07:45:32;6.22;;;1.77;;
53151;SDS011;39234;53.158;6.322;2023-06-14T07:47:57;8.80;;;1.92;;
53151;SDS011;39234;53.158;6.322;2023-06-14T07:50:23;4.47;;;1.60;;
53151;SDS011;39234;53.158;6.322;2023-06-14T07:52:49;4.45;;;1.60;;
53151;SDS011;39234;53.158;6.322;2023-06-14T07:55:14;8.25;;;1.80;;
53151;SDS011;39234;53.158;6.322;2023-06-14T07:57:40;5.07;;;2.03;;
53151;SDS011;39234;53.158;6.322;2023-06-14T08:00:07;6.03;;;1.50;;
53151;SDS011;39234;53.158;6.322;2023-06-14T08:02:36;6.30;;;1.77;;
53151;SDS011;39234;53.158;6.322;2023-06-14T08:05:01;6.10;;;1.52;;
53151;SDS011;39234;53.158;6.322;2023-06-14T08:07:27;4.70;;;1.67;;
53151;SDS011;39234;53.158;6.322;2023-06-14T08:09:53;5.15;;;1.60;;
53151;SDS011;39234;53.158;6.322;2023-06-14T08:12:19;6.05;;;1.83;;
53151;SDS011;39234;53.158;6.322;2023-06-14T08:14:44;3.75;;;2.08;;
53151;SDS011;39234;53.158;6.322;2023-06-14T08:17:10;7.03;;;2.20;;
53151;SDS011;39234;53.158;6.322;2023-06-14T08:19:36;5.70;;;1.83;;
53151;SDS011;39234;53.158;6.322;2023-06-14T08:22:02;5.80;;;1.67;;
53151;SDS011;39234;53.158;6.322;2023-06-14T08:24:28;9.38;;;1.83;;
53151;SDS011;39234;53.158;6.322;2023-06-14T08:26:54;8.23;;;2.00;;
53151;SDS011;39234;53.158;6.322;2023-06-14T08:29:22;7.30;;;2.00;;
53151;SDS011;39234;53.158;6.322;2023-06-14T08:31:47;4.60;;;1.80;;
53151;SDS011;39234;53.158;6.322;2023-06-14T08:34:13;4.35;;;1.90;;
53151;SDS011;39234;53.158;6.322;2023-06-14T08:36:39;10.48;;;1.95;;
53151;SDS011;39234;53.158;6.322;2023-06-14T08:39:06;7.38;;;1.90;;
53151;SDS011;39234;53.158;6.322;2023-06-14T08:41:34;6.28;;;1.70;;
53151;SDS011;39234;53.158;6.322;2023-06-14T08:44:00;9.25;;;1.80;;
53151;SDS011;39234;53.158;6.322;2023-06-14T08:46:26;5.38;;;1.90;;
53151;SDS011;39234;53.158;6.322;2023-06-14T08:48:55;5.50;;;1.48;;
53151;SDS011;39234;53.158;6.322;2023-06-14T08:51:24;6.75;;;2.10;;
53151;SDS011;39234;53.158;6.322;2023-06-14T08:53:52;3.83;;;1.60;;
53151;SDS011;39234;53.158;6.322;2023-06-14T08:56:24;7.32;;;1.50;;
53151;SDS011;39234;53.158;6.322;2023-06-14T08:58:52;5.97;;;1.60;;
53151;SDS011;39234;53.158;6.322;2023-06-14T09:01:22;6.47;;;1.70;;
53151;SDS011;39234;53.158;6.322;2023-06-14T09:03:49;5.65;;;1.83;;
53151;SDS011;39234;53.158;6.322;2023-06-14T09:06:16;5.38;;;1.75;;
53151;SDS011;39234;53.158;6.322;2023-06-14T09:08:43;6.80;;;1.63;;
53151;SDS011;39234;53.158;6.322;2023-06-14T09:11:15;4.40;;;1.67;;
53151;SDS011;39234;53.158;6.322;2023-06-14T09:13:43;4.50;;;1.85;;
53151;SDS011;39234;53.158;6.322;2023-06-14T09:16:10;5.10;;;1.77;;
53151;SDS011;39234;53.158;6.322;2023-06-14T09:21:05;6.07;;;1.80;;
53151;SDS011;39234;53.158;6.322;2023-06-14T09:23:33;4.30;;;1.90;;
53151;SDS011;39234;53.158;6.322;2023-06-14T09:26:09;6.15;;;2.05;;
53151;SDS011;39234;53.158;6.322;2023-06-14T09:28:40;5.53;;;1.83;;
53151;SDS011;39234;53.158;6.322;2023-06-14T09:31:08;6.13;;;1.83;;
53151;SDS011;39234;53.158;6.322;2023-06-14T09:33:35;5.15;;;1.88;;
53151;SDS011;39234;53.158;6.322;2023-06-14T09:36:01;4.63;;;1.73;;
53151;SDS011;39234;53.158;6.322;2023-06-14T09:38:26;6.05;;;1.90;;
53151;SDS011;39234;53.158;6.322;2023-06-14T09:40:52;6.10;;;1.98;;
53151;SDS011;39234;53.158;6.322;2023-06-14T09:43:20;4.68;;;1.67;;
53151;SDS011;39234;53.158;6.322;2023-06-14T09:45:46;8.05;;;1.90;;
53151;SDS011;39234;53.158;6.322;2023-06-14T09:48:13;4.43;;;1.98;;
53151;SDS011;39234;53.158;6.322;2023-06-14T09:50:44;9.20;;;1.67;;
53151;SDS011;39234;53.158;6.322;2023-06-14T09:53:12;8.32;;;2.25;;
53151;SDS011;39234;53.158;6.322;2023-06-14T09:55:39;4.47;;;1.70;;
53151;SDS011;39234;53.158;6.322;2023-06-14T09:58:07;4.35;;;1.75;;
53151;SDS011;39234;53.158;6.322;2023-06-14T10:00:35;4.60;;;1.60;;
53151;SDS011;39234;53.158;6.322;2023-06-14T10:03:14;8.02;;;2.65;;
53151;SDS011;39234;53.158;6.322;2023-06-14T10:05:45;5.53;;;2.10;;
53151;SDS011;39234;53.158;6.322;2023-06-14T10:08:14;3.83;;;2.00;;
53151;SDS011;39234;53.158;6.322;2023-06-14T10:10:42;6.15;;;1.88;;
53151;SDS011;39234;53.158;6.322;2023-06-14T10:13:09;3.97;;;1.83;;
53151;SDS011;39234;53.158;6.322;2023-06-14T10:24:00;5.05;;;1.98;;
53151;SDS011;39234;53.158;6.322;2023-06-14T10:26:30;5.22;;;1.98;;
53151;SDS011;39234;53.158;6.322;2023-06-14T10:28:56;5.43;;;1.90;;
53151;SDS011;39234;53.158;6.322;2023-06-14T10:31:39;4.20;;;1.85;;
53151;SDS011;39234;53.158;6.322;2023-06-14T10:34:10;5.05;;;1.63;;
53151;SDS011;39234;53.158;6.322;2023-06-14T10:36:37;7.82;;;1.88;;
53151;SDS011;39234;53.158;6.322;2023-06-14T10:39:16;7.78;;;2.00;;
53151;SDS011;39234;53.158;6.322;2023-06-14T10:41:50;3.78;;;1.48;;
53151;SDS011;39234;53.158;6.322;2023-06-14T10:46:46;6.57;;;2.40;;
53151;SDS011;39234;53.158;6.322;2023-06-14T10:49:12;12.57;;;2.35;;
53151;SDS011;39234;53.158;6.322;2023-06-14T10:51:44;2.95;;;1.70;;
53151;SDS011;39234;53.158;6.322;2023-06-14T10:54:14;3.72;;;1.40;;
53151;SDS011;39234;53.158;6.322;2023-06-14T10:56:46;6.68;;;1.80;;
53151;SDS011;39234;53.158;6.322;2023-06-14T10:59:16;5.38;;;1.70;;
53151;SDS011;39234;53.158;6.322;2023-06-14T11:04:52;4.82;;;1.80;;
53151;SDS011;39234;53.158;6.322;2023-06-14T11:10:22;6.60;;;1.95;;
53151;SDS011;39234;53.158;6.322;2023-06-14T11:12:42;7.68;;;1.73;;
53151;SDS011;39234;53.158;6.322;2023-06-14T11:15:13;9.65;;;2.35;;
53151;SDS011;39234;53.158;6.322;2023-06-14T11:17:48;7.45;;;1.48;;
53151;SDS011;39234;53.158;6.322;2023-06-14T11:20:16;5.65;;;1.85;;
53151;SDS011;39234;53.158;6.322;2023-06-14T11:22:42;5.75;;;2.03;;
53151;SDS011;39234;53.158;6.322;2023-06-14T11:25:09;7.78;;;1.98;;
53151;SDS011;39234;53.158;6.322;2023-06-14T11:27:35;5.40;;;1.98;;
53151;SDS011;39234;53.158;6.322;2023-06-14T11:30:01;14.35;;;2.38;;
53151;SDS011;39234;53.158;6.322;2023-06-14T11:32:27;5.57;;;1.70;;
53151;SDS011;39234;53.158;6.322;2023-06-14T11:34:53;8.75;;;1.83;;
53151;SDS011;39234;53.158;6.322;2023-06-14T11:37:19;6.43;;;1.85;;
53151;SDS011;39234;53.158;6.322;2023-06-14T11:39:45;10.95;;;1.80;;
53151;SDS011;39234;53.158;6.322;2023-06-14T11:42:15;7.00;;;1.40;;
53151;SDS011;39234;53.158;6.322;2023-06-14T11:44:41;6.15;;;1.50;;
53151;SDS011;39234;53.158;6.322;2023-06-14T11:47:06;5.80;;;1.40;;
53151;SDS011;39234;53.158;6.322;2023-06-14T11:49:35;3.53;;;1.35;;
53151;SDS011;39234;53.158;6.322;2023-06-14T11:52:01;7.63;;;1.52;;
53151;SDS011;39234;53.158;6.322;2023-06-14T11:54:27;5.63;;;1.63;;
53151;SDS011;39234;53.158;6.322;2023-06-14T11:56:53;4.45;;;1.60;;
53151;SDS011;39234;53.158;6.322;2023-06-14T11:59:20;6.15;;;1.40;;
53151;SDS011;39234;53.158;6.322;2023-06-14T12:01:47;4.68;;;1.60;;
53151;SDS011;39234;53.158;6.322;2023-06-14T12:04:12;5.07;;;1.70;;
53151;SDS011;39234;53.158;6.322;2023-06-14T12:06:38;5.82;;;1.45;;
53151;SDS011;39234;53.158;6.322;2023-06-14T12:09:05;6.78;;;1.35;;
53151;SDS011;39234;53.158;6.322;2023-06-14T12:11:35;6.55;;;1.30;;
53151;SDS011;39234;53.158;6.322;2023-06-14T12:14:05;4.43;;;1.55;;
53151;SDS011;39234;53.158;6.322;2023-06-14T12:16:32;4.65;;;1.67;;
53151;SDS011;39234;53.158;6.322;2023-06-14T12:19:14;5.28;;;1.20;;
53151;SDS011;39234;53.158;6.322;2023-06-14T12:21:41;4.65;;;1.13;;
53151;SDS011;39234;53.158;6.322;2023-06-14T12:24:08;7.72;;;1.50;;
53151;SDS011;39234;53.158;6.322;2023-06-14T12:26:40;5.88;;;1.40;;
53151;SDS011;39234;53.158;6.322;2023-06-14T12:29:07;8.88;;;1.60;;
53151;SDS011;39234;53.158;6.322;2023-06-14T12:31:33;2.65;;;1.20;;
53151;SDS011;39234;53.158;6.322;2023-06-14T12:33:59;2.90;;;1.38;;
53151;SDS011;39234;53.158;6.322;2023-06-14T12:36:25;1.88;;;1.02;;
53151;SDS011;39234;53.158;6.322;2023-06-14T12:38:51;5.05;;;1.33;;
53151;SDS011;39234;53.158;6.322;2023-06-14T12:41:22;5.95;;;2.17;;
53151;SDS011;39234;53.158;6.322;2023-06-14T12:43:48;3.80;;;1.02;;
53151;SDS011;39234;53.158;6.322;2023-06-14T12:46:13;2.45;;;1.30;;
53151;SDS011;39234;53.158;6.322;2023-06-14T12:48:39;3.70;;;1.40;;
53151;SDS011;39234;53.158;6.322;2023-06-14T12:51:05;2.85;;;1.17;;
53151;SDS011;39234;53.158;6.322;2023-06-14T12:53:30;4.55;;;1.30;;
53151;SDS011;39234;53.158;6.322;2023-06-14T12:55:56;3.58;;;1.30;;
53151;SDS011;39234;53.158;6.322;2023-06-14T12:58:22;4.82;;;1.33;;
53151;SDS011;39234;53.158;6.322;2023-06-14T13:00:49;3.95;;;1.33;;
53151;SDS011;39234;53.158;6.322;2023-06-14T13:03:15;4.65;;;1.40;;
53151;SDS011;39234;53.158;6.322;2023-06-14T13:05:40;6.07;;;1.33;;
53151;SDS011;39234;53.158;6.322;2023-06-14T13:08:08;3.95;;;1.55;;
53151;SDS011;39234;53.158;6.322;2023-06-14T13:10:34;2.80;;;1.30;;
53151;SDS011;39234;53.158;6.322;2023-06-14T13:12:59;4.15;;;1.30;;
53151;SDS011;39234;53.158;6.322;2023-06-14T13:15:26;3.70;;;1.30;;
53151;SDS011;39234;53.158;6.322;2023-06-14T13:17:52;7.07;;;1.42;;
53151;SDS011;39234;53.158;6.322;2023-06-14T13:20:18;5.30;;;1.75;;
53151;SDS011;39234;53.158;6.322;2023-06-14T13:22:43;3.10;;;1.40;;
53151;SDS011;39234;53.158;6.322;2023-06-14T13:25:09;10.32;;;2.25;;
53151;SDS011;39234;53.158;6.322;2023-06-14T13:27:35;3.28;;;1.25;;
53151;SDS011;39234;53.158;6.322;2023-06-14T13:30:01;4.32;;;1.58;;
53151;SDS011;39234;53.158;6.322;2023-06-14T13:32:27;5.35;;;1.70;;
53151;SDS011;39234;53.158;6.322;2023-06-14T13:34:53;3.35;;;1.48;;
53151;SDS011;39234;53.158;6.322;2023-06-14T13:37:19;2.63;;;1.25;;
53151;SDS011;39234;53.158;6.322;2023-06-14T13:39:45;3.28;;;1.27;;
53151;SDS011;39234;53.158;6.322;2023-06-14T13:42:11;3.83;;;1.55;;
53151;SDS011;39234;53.158;6.322;2023-06-14T13:44:37;7.57;;;1.75;;
53151;SDS011;39234;53.158;6.322;2023-06-14T13:47:02;3.63;;;1.45;;
53151;SDS011;39234;53.158;6.322;2023-06-14T13:49:28;5.57;;;1.20;;
53151;SDS011;39234;53.158;6.322;2023-06-14T13:51:54;3.58;;;1.40;;
53151;SDS011;39234;53.158;6.322;2023-06-14T13:54:20;3.55;;;1.50;;
53151;SDS011;39234;53.158;6.322;2023-06-14T13:56:46;2.90;;;1.20;;
53151;SDS011;39234;53.158;6.322;2023-06-14T13:59:12;3.33;;;1.58;;
53151;SDS011;39234;53.158;6.322;2023-06-14T14:01:38;3.72;;;1.40;;
53151;SDS011;39234;53.158;6.322;2023-06-14T14:04:04;7.03;;;1.52;;
53151;SDS011;39234;53.158;6.322;2023-06-14T14:06:30;4.93;;;1.33;;
53151;SDS011;39234;53.158;6.322;2023-06-14T14:08:56;4.68;;;1.40;;
53151;SDS011;39234;53.158;6.322;2023-06-14T14:11:22;4.53;;;1.67;;
53151;SDS011;39234;53.158;6.322;2023-06-14T14:13:48;7.13;;;1.65;;
53151;SDS011;39234;53.158;6.322;2023-06-14T14:16:14;3.40;;;1.67;;
53151;SDS011;39234;53.158;6.322;2023-06-14T14:18:40;7.32;;;1.52;;
53151;SDS011;39234;53.158;6.322;2023-06-14T14:21:06;5.05;;;1.33;;
53151;SDS011;39234;53.158;6.322;2023-06-14T14:23:32;3.50;;;1.65;;
53151;SDS011;39234;53.158;6.322;2023-06-14T14:25:57;4.90;;;1.50;;
53151;SDS011;39234;53.158;6.322;2023-06-14T14:28:23;5.28;;;1.70;;
53151;SDS011;39234;53.158;6.322;2023-06-14T14:30:49;6.10;;;1.58;;
53151;SDS011;39234;53.158;6.322;2023-06-14T14:33:15;7.75;;;1.58;;
53151;SDS011;39234;53.158;6.322;2023-06-14T14:35:42;5.13;;;1.55;;
53151;SDS011;39234;53.158;6.322;2023-06-14T14:38:13;5.95;;;1.40;;
53151;SDS011;39234;53.158;6.322;2023-06-14T14:40:41;2.65;;;1.35;;
53151;SDS011;39234;53.158;6.322;2023-06-14T14:43:07;5.60;;;1.88;;
53151;SDS011;39234;53.158;6.322;2023-06-14T14:45:33;4.28;;;1.50;;
53151;SDS011;39234;53.158;6.322;2023-06-14T14:48:00;3.92;;;1.50;;
53151;SDS011;39234;53.158;6.322;2023-06-14T14:50:25;6.22;;;2.00;;
53151;SDS011;39234;53.158;6.322;2023-06-14T14:52:51;5.72;;;1.30;;
53151;SDS011;39234;53.158;6.322;2023-06-14T14:55:17;5.05;;;1.48;;
53151;SDS011;39234;53.158;6.322;2023-06-14T14:57:43;7.47;;;1.63;;
53151;SDS011;39234;53.158;6.322;2023-06-14T15:00:12;7.53;;;1.70;;
53151;SDS011;39234;53.158;6.322;2023-06-14T15:02:38;4.65;;;1.45;;
53151;SDS011;39234;53.158;6.322;2023-06-14T15:05:03;5.25;;;1.50;;
53151;SDS011;39234;53.158;6.322;2023-06-14T15:07:30;2.95;;;1.48;;
53151;SDS011;39234;53.158;6.322;2023-06-14T15:09:57;4.32;;;2.15;;
53151;SDS011;39234;53.158;6.322;2023-06-14T15:12:22;4.82;;;1.40;;